sensor_id;sensor_type;location;lat;lon;timestamp;temperature;humidity
6654;DHT22;3363;50.942;7.034;2023-04-01T00:01:45;11.70;75.00
6654;DHT22;3363;50.942;7.034;2023-04-01T00:04:12;11.80;74.60
6654;DHT22;3363;50.942;7.034;2023-04-01T00:06:39;11.70;73.40
6654;DHT22;3363;50.942;7.034;2023-04-01T00:09:06;11.70;74.00
6654;DHT22;3363;50.942;7.034;2023-04-01T00:11:33;11.80;74.10
6654;DHT22;3363;50.942;7.034;2023-04-01T00:14:00;11.80;73.20
6654;DHT22;3363;50.942;7.034;2023-04-01T00:16:27;11.80;73.40
6654;DHT22;3363;50.942;7.034;2023-04-01T00:18:55;11.70;73.00
6654;DHT22;3363;50.942;7.034;2023-04-01T00:21:22;11.80;73.10
6654;DHT22;3363;50.942;7.034;2023-04-01T00:23:49;11.80;72.50
6654;DHT22;3363;50.942;7.034;2023-04-01T00:26:16;11.70;72.50
6654;DHT22;3363;50.942;7.034;2023-04-01T00:28:46;11.70;73.00
6654;DHT22;3363;50.942;7.034;2023-04-01T00:31:13;11.70;71.70
6654;DHT22;3363;50.942;7.034;2023-04-01T00:33:41;11.70;72.20
6654;DHT22;3363;50.942;7.034;2023-04-01T00:36:10;11.80;72.60
6654;DHT22;3363;50.942;7.034;2023-04-01T00:38:38;11.70;71.40
6654;DHT22;3363;50.942;7.034;2023-04-01T00:41:05;11.70;72.10
6654;DHT22;3363;50.942;7.034;2023-04-01T00:43:33;11.70;72.50
6654;DHT22;3363;50.942;7.034;2023-04-01T00:46:00;11.70;72.50
6654;DHT22;3363;50.942;7.034;2023-04-01T00:48:30;11.70;72.50
6654;DHT22;3363;50.942;7.034;2023-04-01T00:51:00;11.70;72.50
6654;DHT22;3363;50.942;7.034;2023-04-01T00:53:31;11.70;72.50
6654;DHT22;3363;50.942;7.034;2023-04-01T00:56:03;11.70;72.50
6654;DHT22;3363;50.942;7.034;2023-04-01T00:58:33;11.70;72.50
6654;DHT22;3363;50.942;7.034;2023-04-01T01:01:02;11.70;73.70
6654;DHT22;3363;50.942;7.034;2023-04-01T01:03:29;11.70;73.10
6654;DHT22;3363;50.942;7.034;2023-04-01T01:06:10;11.60;73.00
6654;DHT22;3363;50.942;7.034;2023-04-01T01:08:52;11.60;73.30
6654;DHT22;3363;50.942;7.034;2023-04-01T01:11:32;11.70;73.30
6654;DHT22;3363;50.942;7.034;2023-04-01T01:14:09;11.60;72.90
6654;DHT22;3363;50.942;7.034;2023-04-01T01:16:42;11.60;72.40
6654;DHT22;3363;50.942;7.034;2023-04-01T01:19:23;11.60;72.40
6654;DHT22;3363;50.942;7.034;2023-04-01T01:22:06;11.70;73.20
6654;DHT22;3363;50.942;7.034;2023-04-01T01:24:52;11.60;72.10
6654;DHT22;3363;50.942;7.034;2023-04-01T01:27:22;11.60;72.40
6654;DHT22;3363;50.942;7.034;2023-04-01T01:30:18;11.60;72.40
6654;DHT22;3363;50.942;7.034;2023-04-01T01:33:09;11.60;72.40
6654;DHT22;3363;50.942;7.034;2023-04-01T01:35:44;11.70;71.70
6654;DHT22;3363;50.942;7.034;2023-04-01T01:38:15;11.70;72.00
6654;DHT22;3363;50.942;7.034;2023-04-01T01:40:45;11.70;72.10
6654;DHT22;3363;50.942;7.034;2023-04-01T01:43:15;11.70;71.90
6654;DHT22;3363;50.942;7.034;2023-04-01T01:45:46;11.60;72.30
6654;DHT22;3363;50.942;7.034;2023-04-01T01:48:13;11.60;72.10
6654;DHT22;3363;50.942;7.034;2023-04-01T01:50:43;11.50;72.30
6654;DHT22;3363;50.942;7.034;2023-04-01T01:53:12;11.60;72.90
6654;DHT22;3363;50.942;7.034;2023-04-01T01:55:41;11.60;73.20
6654;DHT22;3363;50.942;7.034;2023-04-01T01:58:11;11.60;72.80
6654;DHT22;3363;50.942;7.034;2023-04-01T02:00:42;11.60;73.00
6654;DHT22;3363;50.942;7.034;2023-04-01T02:03:11;11.60;73.30
6654;DHT22;3363;50.942;7.034;2023-04-01T02:05:39;11.60;73.90
6654;DHT22;3363;50.942;7.034;2023-04-01T02:08:12;11.60;74.30
6654;DHT22;3363;50.942;7.034;2023-04-01T02:10:41;11.50;75.60
6654;DHT22;3363;50.942;7.034;2023-04-01T02:13:14;11.50;75.60
6654;DHT22;3363;50.942;7.034;2023-04-01T02:15:45;11.50;76.30
6654;DHT22;3363;50.942;7.034;2023-04-01T02:18:14;11.50;77.80
6654;DHT22;3363;50.942;7.034;2023-04-01T02:20:42;11.50;77.60
6654;DHT22;3363;50.942;7.034;2023-04-01T02:23:12;11.40;83.10
6654;DHT22;3363;50.942;7.034;2023-04-01T02:25:41;11.40;82.80
6654;DHT22;3363;50.942;7.034;2023-04-01T02:28:10;11.40;84.30
6654;DHT22;3363;50.942;7.034;2023-04-01T02:30:41;11.40;86.50
6654;DHT22;3363;50.942;7.034;2023-04-01T02:33:09;11.30;87.70
6654;DHT22;3363;50.942;7.034;2023-04-01T02:35:37;11.30;91.00
6654;DHT22;3363;50.942;7.034;2023-04-01T02:38:04;11.30;89.80
6654;DHT22;3363;50.942;7.034;2023-04-01T02:40:43;11.30;90.10
6654;DHT22;3363;50.942;7.034;2023-04-01T02:43:10;11.40;90.80
6654;DHT22;3363;50.942;7.034;2023-04-01T02:45:37;11.30;90.90
6654;DHT22;3363;50.942;7.034;2023-04-01T02:48:05;11.30;92.10
6654;DHT22;3363;50.942;7.034;2023-04-01T02:50:32;11.20;93.80
6654;DHT22;3363;50.942;7.034;2023-04-01T02:52:58;11.20;93.40
6654;DHT22;3363;50.942;7.034;2023-04-01T02:55:25;11.20;95.70
6654;DHT22;3363;50.942;7.034;2023-04-01T02:57:54;11.30;94.50
6654;DHT22;3363;50.942;7.034;2023-04-01T03:00:20;11.20;95.40
6654;DHT22;3363;50.942;7.034;2023-04-01T03:02:47;11.20;95.70
6654;DHT22;3363;50.942;7.034;2023-04-01T03:05:14;11.20;94.70
6654;DHT22;3363;50.942;7.034;2023-04-01T03:07:41;11.20;95.10
6654;DHT22;3363;50.942;7.034;2023-04-01T03:10:09;11.20;94.70
6654;DHT22;3363;50.942;7.034;2023-04-01T03:12:36;11.20;95.90
6654;DHT22;3363;50.942;7.034;2023-04-01T03:15:05;11.20;97.10
6654;DHT22;3363;50.942;7.034;2023-04-01T03:17:32;11.20;95.30
6654;DHT22;3363;50.942;7.034;2023-04-01T03:19:59;11.20;94.90
6654;DHT22;3363;50.942;7.034;2023-04-01T03:22:26;11.20;95.70
6654;DHT22;3363;50.942;7.034;2023-04-01T03:24:53;11.20;96.50
6654;DHT22;3363;50.942;7.034;2023-04-01T03:27:19;11.20;95.10
6654;DHT22;3363;50.942;7.034;2023-04-01T03:29:46;11.20;95.10
6654;DHT22;3363;50.942;7.034;2023-04-01T03:32:14;11.20;95.20
6654;DHT22;3363;50.942;7.034;2023-04-01T03:34:41;11.20;94.50
6654;DHT22;3363;50.942;7.034;2023-04-01T03:37:08;11.20;94.80
6654;DHT22;3363;50.942;7.034;2023-04-01T03:39:35;11.20;94.40
6654;DHT22;3363;50.942;7.034;2023-04-01T03:42:02;11.20;95.70
6654;DHT22;3363;50.942;7.034;2023-04-01T03:44:30;11.20;97.30
6654;DHT22;3363;50.942;7.034;2023-04-01T03:46:58;11.10;96.80
6654;DHT22;3363;50.942;7.034;2023-04-01T03:49:26;11.10;95.50
6654;DHT22;3363;50.942;7.034;2023-04-01T03:51:53;11.10;96.60
6654;DHT22;3363;50.942;7.034;2023-04-01T03:54:20;11.20;97.20
6654;DHT22;3363;50.942;7.034;2023-04-01T03:56:47;11.10;97.80
6654;DHT22;3363;50.942;7.034;2023-04-01T03:59:14;11.00;99.80
6654;DHT22;3363;50.942;7.034;2023-04-01T04:01:41;11.10;99.10
6654;DHT22;3363;50.942;7.034;2023-04-01T04:04:10;11.10;98.30
6654;DHT22;3363;50.942;7.034;2023-04-01T04:06:39;11.10;97.80
6654;DHT22;3363;50.942;7.034;2023-04-01T04:09:06;11.10;98.80
6654;DHT22;3363;50.942;7.034;2023-04-01T04:11:33;11.10;99.90
6654;DHT22;3363;50.942;7.034;2023-04-01T04:14:00;11.10;99.30
6654;DHT22;3363;50.942;7.034;2023-04-01T04:16:27;11.00;99.90
6654;DHT22;3363;50.942;7.034;2023-04-01T04:18:54;11.10;99.30
6654;DHT22;3363;50.942;7.034;2023-04-01T04:21:21;11.10;99.80
6654;DHT22;3363;50.942;7.034;2023-04-01T04:23:49;11.10;99.20
6654;DHT22;3363;50.942;7.034;2023-04-01T04:26:16;11.10;98.40
6654;DHT22;3363;50.942;7.034;2023-04-01T04:28:44;11.10;97.90
6654;DHT22;3363;50.942;7.034;2023-04-01T04:31:11;11.10;97.30
6654;DHT22;3363;50.942;7.034;2023-04-01T04:33:38;11.10;96.90
6654;DHT22;3363;50.942;7.034;2023-04-01T04:36:05;11.10;98.30
6654;DHT22;3363;50.942;7.034;2023-04-01T04:38:32;11.10;97.60
6654;DHT22;3363;50.942;7.034;2023-04-01T04:41:00;11.10;97.70
6654;DHT22;3363;50.942;7.034;2023-04-01T04:43:27;11.00;98.60
6654;DHT22;3363;50.942;7.034;2023-04-01T04:45:54;11.00;97.50
6654;DHT22;3363;50.942;7.034;2023-04-01T04:48:21;11.10;97.10
6654;DHT22;3363;50.942;7.034;2023-04-01T04:50:49;11.10;98.10
6654;DHT22;3363;50.942;7.034;2023-04-01T04:53:17;11.10;97.10
6654;DHT22;3363;50.942;7.034;2023-04-01T04:55:44;11.10;97.20
6654;DHT22;3363;50.942;7.034;2023-04-01T04:58:13;11.10;96.60
6654;DHT22;3363;50.942;7.034;2023-04-01T05:00:40;11.10;96.60
6654;DHT22;3363;50.942;7.034;2023-04-01T05:03:07;11.10;96.80
6654;DHT22;3363;50.942;7.034;2023-04-01T05:05:34;11.10;96.40
6654;DHT22;3363;50.942;7.034;2023-04-01T05:08:01;11.10;96.80
6654;DHT22;3363;50.942;7.034;2023-04-01T05:10:28;11.10;98.70
6654;DHT22;3363;50.942;7.034;2023-04-01T05:12:56;11.00;99.20
6654;DHT22;3363;50.942;7.034;2023-04-01T05:15:24;11.10;99.20
6654;DHT22;3363;50.942;7.034;2023-04-01T05:17:52;11.10;98.70
6654;DHT22;3363;50.942;7.034;2023-04-01T05:20:19;11.10;98.50
6654;DHT22;3363;50.942;7.034;2023-04-01T05:22:46;11.10;98.20
6654;DHT22;3363;50.942;7.034;2023-04-01T05:25:12;11.10;98.20
6654;DHT22;3363;50.942;7.034;2023-04-01T05:27:39;11.10;98.20
6654;DHT22;3363;50.942;7.034;2023-04-01T05:30:07;11.10;99.00
6654;DHT22;3363;50.942;7.034;2023-04-01T05:32:36;11.10;98.30
6654;DHT22;3363;50.942;7.034;2023-04-01T05:35:03;11.10;99.60
6654;DHT22;3363;50.942;7.034;2023-04-01T05:37:30;11.00;99.40
6654;DHT22;3363;50.942;7.034;2023-04-01T05:39:59;11.00;99.00
6654;DHT22;3363;50.942;7.034;2023-04-01T05:42:26;11.10;98.70
6654;DHT22;3363;50.942;7.034;2023-04-01T05:44:53;11.00;99.90
6654;DHT22;3363;50.942;7.034;2023-04-01T05:47:21;11.00;99.90
6654;DHT22;3363;50.942;7.034;2023-04-01T05:49:49;11.00;99.90
6654;DHT22;3363;50.942;7.034;2023-04-01T05:52:16;11.00;99.80
6654;DHT22;3363;50.942;7.034;2023-04-01T05:54:43;11.10;99.80
6654;DHT22;3363;50.942;7.034;2023-04-01T05:57:09;11.10;99.40
6654;DHT22;3363;50.942;7.034;2023-04-01T05:59:36;11.10;99.60
6654;DHT22;3363;50.942;7.034;2023-04-01T06:02:03;11.00;99.90
6654;DHT22;3363;50.942;7.034;2023-04-01T06:04:34;11.00;99.90
6654;DHT22;3363;50.942;7.034;2023-04-01T06:07:11;11.00;99.90
6654;DHT22;3363;50.942;7.034;2023-04-01T06:09:38;11.00;99.90
6654;DHT22;3363;50.942;7.034;2023-04-01T06:12:33;11.00;99.90
6654;DHT22;3363;50.942;7.034;2023-04-01T06:15:20;11.00;99.90
6654;DHT22;3363;50.942;7.034;2023-04-01T06:18:19;11.00;99.90
6654;DHT22;3363;50.942;7.034;2023-04-01T06:20:52;11.00;99.90
6654;DHT22;3363;50.942;7.034;2023-04-01T06:23:32;11.00;99.90
6654;DHT22;3363;50.942;7.034;2023-04-01T06:26:11;11.00;99.90
6654;DHT22;3363;50.942;7.034;2023-04-01T06:28:46;11.00;99.90
6654;DHT22;3363;50.942;7.034;2023-04-01T06:31:34;11.00;99.90
6654;DHT22;3363;50.942;7.034;2023-04-01T06:34:27;11.00;99.90
6654;DHT22;3363;50.942;7.034;2023-04-01T06:37:14;11.00;99.90
6654;DHT22;3363;50.942;7.034;2023-04-01T06:42:52;11.10;99.90
6654;DHT22;3363;50.942;7.034;2023-04-01T06:45:31;11.00;99.90
6654;DHT22;3363;50.942;7.034;2023-04-01T06:48:26;11.00;99.90
6654;DHT22;3363;50.942;7.034;2023-04-01T06:51:02;11.00;99.90
6654;DHT22;3363;50.942;7.034;2023-04-01T06:53:38;11.00;99.90
6654;DHT22;3363;50.942;7.034;2023-04-01T06:56:12;11.10;99.90
6654;DHT22;3363;50.942;7.034;2023-04-01T06:58:44;11.00;99.90
6654;DHT22;3363;50.942;7.034;2023-04-01T07:01:15;11.10;99.90
6654;DHT22;3363;50.942;7.034;2023-04-01T07:03:47;11.10;99.90
6654;DHT22;3363;50.942;7.034;2023-04-01T07:06:23;11.10;99.90
6654;DHT22;3363;50.942;7.034;2023-04-01T07:08:51;11.10;99.90
6654;DHT22;3363;50.942;7.034;2023-04-01T07:11:25;11.10;99.90
6654;DHT22;3363;50.942;7.034;2023-04-01T07:13:56;11.00;99.90
6654;DHT22;3363;50.942;7.034;2023-04-01T07:16:30;11.00;99.90
6654;DHT22;3363;50.942;7.034;2023-04-01T07:19:02;11.00;99.90
6654;DHT22;3363;50.942;7.034;2023-04-01T07:21:33;11.00;99.90
6654;DHT22;3363;50.942;7.034;2023-04-01T07:24:05;11.00;99.90
6654;DHT22;3363;50.942;7.034;2023-04-01T07:26:34;11.00;99.90
6654;DHT22;3363;50.942;7.034;2023-04-01T07:29:08;11.00;99.90
6654;DHT22;3363;50.942;7.034;2023-04-01T07:34:43;11.00;99.90
6654;DHT22;3363;50.942;7.034;2023-04-01T07:37:15;11.00;99.90
6654;DHT22;3363;50.942;7.034;2023-04-01T07:39:50;11.00;99.90
6654;DHT22;3363;50.942;7.034;2023-04-01T07:42:27;11.00;99.90
6654;DHT22;3363;50.942;7.034;2023-04-01T07:45:04;11.00;99.90
6654;DHT22;3363;50.942;7.034;2023-04-01T07:47:45;11.00;99.90
6654;DHT22;3363;50.942;7.034;2023-04-01T07:50:23;11.00;99.90
6654;DHT22;3363;50.942;7.034;2023-04-01T07:52:59;11.00;99.90
6654;DHT22;3363;50.942;7.034;2023-04-01T07:55:33;11.00;99.90
6654;DHT22;3363;50.942;7.034;2023-04-01T07:58:09;11.00;99.90
6654;DHT22;3363;50.942;7.034;2023-04-01T08:00:44;11.00;99.90
6654;DHT22;3363;50.942;7.034;2023-04-01T08:03:42;11.00;99.90
6654;DHT22;3363;50.942;7.034;2023-04-01T08:06:20;11.00;99.90
6654;DHT22;3363;50.942;7.034;2023-04-01T08:08:57;11.00;99.90
6654;DHT22;3363;50.942;7.034;2023-04-01T08:11:36;11.10;99.90
6654;DHT22;3363;50.942;7.034;2023-04-01T08:14:15;11.00;99.90
6654;DHT22;3363;50.942;7.034;2023-04-01T08:16:48;11.00;99.90
6654;DHT22;3363;50.942;7.034;2023-04-01T08:19:27;11.00;99.90
6654;DHT22;3363;50.942;7.034;2023-04-01T08:22:00;11.00;99.90
6654;DHT22;3363;50.942;7.034;2023-04-01T08:24:35;11.00;99.90
6654;DHT22;3363;50.942;7.034;2023-04-01T08:27:11;11.00;99.90
6654;DHT22;3363;50.942;7.034;2023-04-01T08:29:46;11.00;99.90
6654;DHT22;3363;50.942;7.034;2023-04-01T08:32:20;11.00;99.90
6654;DHT22;3363;50.942;7.034;2023-04-01T08:34:55;11.00;99.90
6654;DHT22;3363;50.942;7.034;2023-04-01T08:37:30;11.00;99.90
6654;DHT22;3363;50.942;7.034;2023-04-01T08:40:02;11.00;99.90
6654;DHT22;3363;50.942;7.034;2023-04-01T08:42:54;11.00;99.90
6654;DHT22;3363;50.942;7.034;2023-04-01T08:45:33;11.00;99.90
6654;DHT22;3363;50.942;7.034;2023-04-01T08:48:35;11.00;99.90
6654;DHT22;3363;50.942;7.034;2023-04-01T08:51:22;11.00;99.90
6654;DHT22;3363;50.942;7.034;2023-04-01T08:54:12;11.00;99.90
6654;DHT22;3363;50.942;7.034;2023-04-01T08:56:50;11.00;99.90
6654;DHT22;3363;50.942;7.034;2023-04-01T08:59:40;11.10;99.90
6654;DHT22;3363;50.942;7.034;2023-04-01T09:02:47;11.10;99.90
6654;DHT22;3363;50.942;7.034;2023-04-01T09:05:39;11.10;99.90
6654;DHT22;3363;50.942;7.034;2023-04-01T09:08:22;11.00;99.90
6654;DHT22;3363;50.942;7.034;2023-04-01T09:11:02;11.00;99.90
6654;DHT22;3363;50.942;7.034;2023-04-01T09:14:05;11.00;99.90
6654;DHT22;3363;50.942;7.034;2023-04-01T09:16:59;11.10;99.90
6654;DHT22;3363;50.942;7.034;2023-04-01T09:19:33;11.10;99.90
6654;DHT22;3363;50.942;7.034;2023-04-01T09:22:25;11.10;99.90
6654;DHT22;3363;50.942;7.034;2023-04-01T09:25:19;11.10;99.90
6654;DHT22;3363;50.942;7.034;2023-04-01T09:27:56;11.10;99.90
6654;DHT22;3363;50.942;7.034;2023-04-01T09:30:37;11.10;99.90
6654;DHT22;3363;50.942;7.034;2023-04-01T09:36:33;11.10;99.90
6654;DHT22;3363;50.942;7.034;2023-04-01T09:39:24;11.10;99.90
6654;DHT22;3363;50.942;7.034;2023-04-01T09:44:48;11.10;99.90
6654;DHT22;3363;50.942;7.034;2023-04-01T09:47:34;11.10;99.90
6654;DHT22;3363;50.942;7.034;2023-04-01T09:50:25;11.10;99.90
6654;DHT22;3363;50.942;7.034;2023-04-01T09:53:07;11.10;99.90
6654;DHT22;3363;50.942;7.034;2023-04-01T10:02:21;11.00;99.90
6654;DHT22;3363;50.942;7.034;2023-04-01T10:05:11;11.00;99.90
6654;DHT22;3363;50.942;7.034;2023-04-01T10:08:12;11.10;99.90
6654;DHT22;3363;50.942;7.034;2023-04-01T10:17:17;11.10;99.90
6654;DHT22;3363;50.942;7.034;2023-04-01T10:20:06;11.10;99.90
6654;DHT22;3363;50.942;7.034;2023-04-01T10:23:06;11.20;99.90
6654;DHT22;3363;50.942;7.034;2023-04-01T10:25:56;11.20;99.90
6654;DHT22;3363;50.942;7.034;2023-04-01T10:35:24;11.20;99.90
6654;DHT22;3363;50.942;7.034;2023-04-01T10:44:15;11.20;99.90
6654;DHT22;3363;50.942;7.034;2023-04-01T10:50:11;11.30;99.90
6654;DHT22;3363;50.942;7.034;2023-04-01T10:53:12;11.30;99.90
6654;DHT22;3363;50.942;7.034;2023-04-01T10:59:35;11.40;99.90
6654;DHT22;3363;50.942;7.034;2023-04-01T11:02:52;11.40;99.90
6654;DHT22;3363;50.942;7.034;2023-04-01T11:05:58;11.40;99.90
6654;DHT22;3363;50.942;7.034;2023-04-01T11:11:48;11.40;99.90
6654;DHT22;3363;50.942;7.034;2023-04-01T11:24:12;11.50;99.90
6654;DHT22;3363;50.942;7.034;2023-04-01T11:26:51;11.50;99.90
6654;DHT22;3363;50.942;7.034;2023-04-01T11:29:44;11.50;99.90
6654;DHT22;3363;50.942;7.034;2023-04-01T11:32:24;11.60;99.90
6654;DHT22;3363;50.942;7.034;2023-04-01T11:35:09;11.60;99.90
6654;DHT22;3363;50.942;7.034;2023-04-01T11:37:46;11.60;99.90
6654;DHT22;3363;50.942;7.034;2023-04-01T11:40:23;11.60;99.90
6654;DHT22;3363;50.942;7.034;2023-04-01T11:42:59;11.60;99.90
6654;DHT22;3363;50.942;7.034;2023-04-01T11:45:35;11.60;99.90
6654;DHT22;3363;50.942;7.034;2023-04-01T11:48:29;11.60;99.90
6654;DHT22;3363;50.942;7.034;2023-04-01T11:51:11;11.60;99.90
6654;DHT22;3363;50.942;7.034;2023-04-01T11:53:46;11.60;99.90
6654;DHT22;3363;50.942;7.034;2023-04-01T11:59:37;11.60;99.90
6654;DHT22;3363;50.942;7.034;2023-04-01T12:02:12;11.70;99.90
6654;DHT22;3363;50.942;7.034;2023-04-01T12:04:59;11.70;99.90
6654;DHT22;3363;50.942;7.034;2023-04-01T12:10:28;11.60;99.90
6654;DHT22;3363;50.942;7.034;2023-04-01T12:13:04;11.60;99.90
6654;DHT22;3363;50.942;7.034;2023-04-01T12:15:41;11.60;99.90
6654;DHT22;3363;50.942;7.034;2023-04-01T12:18:16;11.50;99.90
6654;DHT22;3363;50.942;7.034;2023-04-01T12:20:50;11.60;99.90
6654;DHT22;3363;50.942;7.034;2023-04-01T12:23:36;11.60;99.90
6654;DHT22;3363;50.942;7.034;2023-04-01T12:26:23;11.60;99.90
6654;DHT22;3363;50.942;7.034;2023-04-01T12:29:07;11.70;99.90
6654;DHT22;3363;50.942;7.034;2023-04-01T12:31:46;11.70;99.90
6654;DHT22;3363;50.942;7.034;2023-04-01T12:34:48;11.70;99.90
6654;DHT22;3363;50.942;7.034;2023-04-01T12:37:20;11.70;99.90
6654;DHT22;3363;50.942;7.034;2023-04-01T12:39:59;11.70;99.90
6654;DHT22;3363;50.942;7.034;2023-04-01T12:42:48;11.70;99.90
6654;DHT22;3363;50.942;7.034;2023-04-01T12:45:29;11.70;99.90
6654;DHT22;3363;50.942;7.034;2023-04-01T12:57:06;11.70;99.90
6654;DHT22;3363;50.942;7.034;2023-04-01T12:59:53;11.70;99.90
6654;DHT22;3363;50.942;7.034;2023-04-01T13:02:36;11.70;99.90
6654;DHT22;3363;50.942;7.034;2023-04-01T13:08:08;11.70;99.90
6654;DHT22;3363;50.942;7.034;2023-04-01T13:10:50;11.70;99.90
6654;DHT22;3363;50.942;7.034;2023-04-01T13:13:34;11.70;99.90
6654;DHT22;3363;50.942;7.034;2023-04-01T13:16:11;11.70;99.90
6654;DHT22;3363;50.942;7.034;2023-04-01T13:18:52;11.70;99.90
6654;DHT22;3363;50.942;7.034;2023-04-01T13:21:30;11.80;99.90
6654;DHT22;3363;50.942;7.034;2023-04-01T13:24:04;11.80;99.90
6654;DHT22;3363;50.942;7.034;2023-04-01T13:26:43;11.80;99.90
6654;DHT22;3363;50.942;7.034;2023-04-01T13:29:19;11.80;99.90
6654;DHT22;3363;50.942;7.034;2023-04-01T13:32:00;11.80;99.90
6654;DHT22;3363;50.942;7.034;2023-04-01T13:34:48;11.80;99.90
6654;DHT22;3363;50.942;7.034;2023-04-01T13:37:35;11.70;99.90
6654;DHT22;3363;50.942;7.034;2023-04-01T13:40:37;11.70;99.90
6654;DHT22;3363;50.942;7.034;2023-04-01T13:43:14;11.70;99.90
6654;DHT22;3363;50.942;7.034;2023-04-01T13:46:02;11.70;99.90
6654;DHT22;3363;50.942;7.034;2023-04-01T13:51:44;11.70;99.90
6654;DHT22;3363;50.942;7.034;2023-04-01T13:54:25;11.70;99.90
6654;DHT22;3363;50.942;7.034;2023-04-01T13:57:06;11.70;99.90
6654;DHT22;3363;50.942;7.034;2023-04-01T14:00:04;11.70;99.90
6654;DHT22;3363;50.942;7.034;2023-04-01T14:02:51;11.70;99.90
6654;DHT22;3363;50.942;7.034;2023-04-01T14:05:48;11.60;99.90
6654;DHT22;3363;50.942;7.034;2023-04-01T14:08:29;11.60;99.90
6654;DHT22;3363;50.942;7.034;2023-04-01T14:11:05;11.60;99.90
6654;DHT22;3363;50.942;7.034;2023-04-01T14:13:39;11.60;99.90
6654;DHT22;3363;50.942;7.034;2023-04-01T14:16:25;11.70;99.90
6654;DHT22;3363;50.942;7.034;2023-04-01T14:19:23;11.70;99.90
6654;DHT22;3363;50.942;7.034;2023-04-01T14:21:59;11.70;99.90
6654;DHT22;3363;50.942;7.034;2023-04-01T14:24:41;11.70;99.90
6654;DHT22;3363;50.942;7.034;2023-04-01T14:33:05;11.60;99.90
6654;DHT22;3363;50.942;7.034;2023-04-01T14:35:46;11.60;99.90
6654;DHT22;3363;50.942;7.034;2023-04-01T14:41:20;11.60;99.90
6654;DHT22;3363;50.942;7.034;2023-04-01T14:44:14;11.60;99.90
6654;DHT22;3363;50.942;7.034;2023-04-01T14:47:05;11.60;99.90
6654;DHT22;3363;50.942;7.034;2023-04-01T14:49:36;11.60;99.90
6654;DHT22;3363;50.942;7.034;2023-04-01T14:52:11;11.60;99.90
6654;DHT22;3363;50.942;7.034;2023-04-01T14:54:42;11.50;99.90
6654;DHT22;3363;50.942;7.034;2023-04-01T14:57:12;11.50;99.90
6654;DHT22;3363;50.942;7.034;2023-04-01T14:59:41;11.50;99.90
6654;DHT22;3363;50.942;7.034;2023-04-01T15:02:24;11.50;99.90
6654;DHT22;3363;50.942;7.034;2023-04-01T15:04:58;11.60;99.90
6654;DHT22;3363;50.942;7.034;2023-04-01T15:07:52;11.60;99.90
6654;DHT22;3363;50.942;7.034;2023-04-01T15:13:36;11.60;99.90
6654;DHT22;3363;50.942;7.034;2023-04-01T15:16:13;11.60;99.90
6654;DHT22;3363;50.942;7.034;2023-04-01T15:18:53;11.60;99.90
6654;DHT22;3363;50.942;7.034;2023-04-01T15:21:38;11.60;99.90
6654;DHT22;3363;50.942;7.034;2023-04-01T15:24:17;11.60;99.90
6654;DHT22;3363;50.942;7.034;2023-04-01T15:26:59;11.60;99.90
6654;DHT22;3363;50.942;7.034;2023-04-01T15:29:56;11.60;99.90
6654;DHT22;3363;50.942;7.034;2023-04-01T15:32:32;11.60;99.90
6654;DHT22;3363;50.942;7.034;2023-04-01T15:35:18;11.50;99.90
6654;DHT22;3363;50.942;7.034;2023-04-01T15:37:54;11.50;99.90
6654;DHT22;3363;50.942;7.034;2023-04-01T15:40:27;11.50;99.90
6654;DHT22;3363;50.942;7.034;2023-04-01T15:43:03;11.60;99.90
6654;DHT22;3363;50.942;7.034;2023-04-01T15:45:40;11.50;99.90
6654;DHT22;3363;50.942;7.034;2023-04-01T15:48:25;11.60;99.90
6654;DHT22;3363;50.942;7.034;2023-04-01T15:51:19;11.50;99.90
6654;DHT22;3363;50.942;7.034;2023-04-01T15:54:12;11.60;99.90
6654;DHT22;3363;50.942;7.034;2023-04-01T15:57:14;11.60;99.90
6654;DHT22;3363;50.942;7.034;2023-04-01T16:00:04;11.50;99.90
6654;DHT22;3363;50.942;7.034;2023-04-01T16:02:36;11.50;99.90
6654;DHT22;3363;50.942;7.034;2023-04-01T16:05:09;11.50;99.90
6654;DHT22;3363;50.942;7.034;2023-04-01T16:07:56;11.50;99.90
6654;DHT22;3363;50.942;7.034;2023-04-01T16:10:38;11.50;99.90
6654;DHT22;3363;50.942;7.034;2023-04-01T16:13:24;11.40;99.90
6654;DHT22;3363;50.942;7.034;2023-04-01T16:16:01;11.50;99.90
6654;DHT22;3363;50.942;7.034;2023-04-01T16:18:45;11.50;99.90
6654;DHT22;3363;50.942;7.034;2023-04-01T16:21:27;11.50;99.90
6654;DHT22;3363;50.942;7.034;2023-04-01T16:24:08;11.40;99.90
6654;DHT22;3363;50.942;7.034;2023-04-01T16:26:38;11.40;99.90
6654;DHT22;3363;50.942;7.034;2023-04-01T16:29:11;11.40;99.90
6654;DHT22;3363;50.942;7.034;2023-04-01T16:31:48;11.50;99.90
6654;DHT22;3363;50.942;7.034;2023-04-01T16:34:18;11.50;99.90
6654;DHT22;3363;50.942;7.034;2023-04-01T16:36:48;11.40;99.90
6654;DHT22;3363;50.942;7.034;2023-04-01T16:39:27;11.40;99.90
6654;DHT22;3363;50.942;7.034;2023-04-01T16:42:13;11.40;99.90
6654;DHT22;3363;50.942;7.034;2023-04-01T16:44:50;11.40;99.90
6654;DHT22;3363;50.942;7.034;2023-04-01T16:47:22;11.40;99.90
6654;DHT22;3363;50.942;7.034;2023-04-01T16:49:58;11.40;99.90
6654;DHT22;3363;50.942;7.034;2023-04-01T16:52:40;11.30;99.90
6654;DHT22;3363;50.942;7.034;2023-04-01T16:55:15;11.30;99.90
6654;DHT22;3363;50.942;7.034;2023-04-01T16:57:47;11.30;99.90
6654;DHT22;3363;50.942;7.034;2023-04-01T17:00:25;11.30;99.90
6654;DHT22;3363;50.942;7.034;2023-04-01T17:03:01;11.30;99.90
6654;DHT22;3363;50.942;7.034;2023-04-01T17:05:43;11.30;99.90
6654;DHT22;3363;50.942;7.034;2023-04-01T17:08:21;11.30;99.90
6654;DHT22;3363;50.942;7.034;2023-04-01T17:13:29;11.30;99.90
6654;DHT22;3363;50.942;7.034;2023-04-01T17:16:19;11.20;99.90
6654;DHT22;3363;50.942;7.034;2023-04-01T17:18:56;11.20;99.90
6654;DHT22;3363;50.942;7.034;2023-04-01T17:21:28;11.20;99.90
6654;DHT22;3363;50.942;7.034;2023-04-01T17:24:13;11.20;99.90
6654;DHT22;3363;50.942;7.034;2023-04-01T17:26:47;11.30;99.90
6654;DHT22;3363;50.942;7.034;2023-04-01T17:29:24;11.20;99.90
6654;DHT22;3363;50.942;7.034;2023-04-01T17:32:03;11.20;99.90
6654;DHT22;3363;50.942;7.034;2023-04-01T17:34:43;11.20;99.90
6654;DHT22;3363;50.942;7.034;2023-04-01T17:37:26;11.20;99.90
6654;DHT22;3363;50.942;7.034;2023-04-01T17:40:01;11.20;99.90
6654;DHT22;3363;50.942;7.034;2023-04-01T17:42:40;11.20;99.90
6654;DHT22;3363;50.942;7.034;2023-04-01T17:45:16;11.20;99.90
6654;DHT22;3363;50.942;7.034;2023-04-01T17:47:59;11.20;99.90
6654;DHT22;3363;50.942;7.034;2023-04-01T17:50:37;11.10;99.90
6654;DHT22;3363;50.942;7.034;2023-04-01T17:53:17;11.20;99.90
6654;DHT22;3363;50.942;7.034;2023-04-01T17:56:05;11.10;99.90
6654;DHT22;3363;50.942;7.034;2023-04-01T17:58:44;11.10;99.90
6654;DHT22;3363;50.942;7.034;2023-04-01T18:01:28;11.10;99.90
6654;DHT22;3363;50.942;7.034;2023-04-01T18:10:08;11.00;99.90
6654;DHT22;3363;50.942;7.034;2023-04-01T18:12:52;11.10;99.90
6654;DHT22;3363;50.942;7.034;2023-04-01T18:15:28;11.10;99.90
6654;DHT22;3363;50.942;7.034;2023-04-01T18:18:10;11.10;99.90
6654;DHT22;3363;50.942;7.034;2023-04-01T18:20:47;11.10;99.90
6654;DHT22;3363;50.942;7.034;2023-04-01T18:23:26;11.00;99.90
6654;DHT22;3363;50.942;7.034;2023-04-01T18:26:03;11.00;99.90
6654;DHT22;3363;50.942;7.034;2023-04-01T18:28:35;11.00;99.90
6654;DHT22;3363;50.942;7.034;2023-04-01T18:31:08;11.00;99.90
6654;DHT22;3363;50.942;7.034;2023-04-01T18:33:45;11.10;99.90
6654;DHT22;3363;50.942;7.034;2023-04-01T18:36:21;11.00;99.90
6654;DHT22;3363;50.942;7.034;2023-04-01T18:38:53;11.00;99.90
6654;DHT22;3363;50.942;7.034;2023-04-01T18:41:28;11.00;99.90